sensor_id;sensor_type;location;lat;lon;timestamp;pressure;altitude;pressure_sealevel;temperature;humidity
36664;BME280;53333;51.976;20.144;2022-07-23T00:00:20;100178.25;;;24.17;53.02
36664;BME280;53333;51.976;20.144;2022-07-23T00:02:54;100180.59;;;24.12;53.38
36664;BME280;53333;51.976;20.144;2022-07-23T00:05:28;100181.97;;;24.08;53.41
36664;BME280;53333;51.976;20.144;2022-07-23T00:08:02;100183.28;;;24.04;53.47
36664;BME280;53333;51.976;20.144;2022-07-23T00:10:37;100176.13;;;24.03;53.21
36664;BME280;53333;51.976;20.144;2022-07-23T00:13:11;100186.50;;;23.99;53.31
36664;BME280;53333;51.976;20.144;2022-07-23T00:15:46;100187.69;;;23.97;53.44
36664;BME280;53333;51.976;20.144;2022-07-23T00:18:20;100181.38;;;23.96;53.26
36664;BME280;53333;51.976;20.144;2022-07-23T00:20:53;100190.75;;;23.93;53.19
36664;BME280;53333;51.976;20.144;2022-07-23T00:23:27;100191.75;;;23.92;53.25
36664;BME280;53333;51.976;20.144;2022-07-23T00:26:01;100190.91;;;23.92;53.17
36664;BME280;53333;51.976;20.144;2022-07-23T00:28:35;100198.22;;;23.91;53.55
36664;BME280;53333;51.976;20.144;2022-07-23T00:31:10;100195.66;;;23.90;53.50
36664;BME280;53333;51.976;20.144;2022-07-23T00:33:44;100195.97;;;23.87;53.55
36664;BME280;53333;51.976;20.144;2022-07-23T00:36:18;100194.56;;;23.83;53.73
36664;BME280;53333;51.976;20.144;2022-07-23T00:38:51;100197.44;;;23.81;53.41
36664;BME280;53333;51.976;20.144;2022-07-23T00:41:25;100203.22;;;23.78;54.03
36664;BME280;53333;51.976;20.144;2022-07-23T00:44:14;100206.09;;;23.76;54.09
36664;BME280;53333;51.976;20.144;2022-07-23T00:46:52;100194.13;;;23.69;54.22
36664;BME280;53333;51.976;20.144;2022-07-23T00:49:28;100200.06;;;23.65;54.44
36664;BME280;53333;51.976;20.144;2022-07-23T00:52:02;100198.66;;;23.61;54.38
36664;BME280;53333;51.976;20.144;2022-07-23T00:54:36;100194.53;;;23.56;54.32
36664;BME280;53333;51.976;20.144;2022-07-23T00:57:10;100197.91;;;23.50;54.47
36664;BME280;53333;51.976;20.144;2022-07-23T00:59:44;100198.06;;;23.49;54.64
36664;BME280;53333;51.976;20.144;2022-07-23T01:02:19;100198.38;;;23.46;54.76
36664;BME280;53333;51.976;20.144;2022-07-23T01:04:53;100196.81;;;23.43;54.94
36664;BME280;53333;51.976;20.144;2022-07-23T01:07:27;100199.84;;;23.40;54.57
36664;BME280;53333;51.976;20.144;2022-07-23T01:10:01;100193.03;;;23.36;55.09
36664;BME280;53333;51.976;20.144;2022-07-23T01:12:35;100201.50;;;23.33;55.04
36664;BME280;53333;51.976;20.144;2022-07-23T01:15:09;100198.22;;;23.29;55.00
36664;BME280;53333;51.976;20.144;2022-07-23T01:17:45;100201.09;;;23.28;55.20
36664;BME280;53333;51.976;20.144;2022-07-23T01:20:19;100205.16;;;23.24;55.44
36664;BME280;53333;51.976;20.144;2022-07-23T01:22:54;100200.88;;;23.21;55.48
36664;BME280;53333;51.976;20.144;2022-07-23T01:25:28;100196.59;;;23.18;55.71
36664;BME280;53333;51.976;20.144;2022-07-23T01:28:05;100204.34;;;23.13;55.57
36664;BME280;53333;51.976;20.144;2022-07-23T01:30:39;100195.66;;;23.10;55.42
36664;BME280;53333;51.976;20.144;2022-07-23T01:33:13;100193.19;;;23.07;56.08
36664;BME280;53333;51.976;20.144;2022-07-23T01:35:47;100190.78;;;23.03;55.97
36664;BME280;53333;51.976;20.144;2022-07-23T01:38:27;100187.38;;;23.01;56.07
36664;BME280;53333;51.976;20.144;2022-07-23T01:41:01;100187.53;;;23.00;55.85
36664;BME280;53333;51.976;20.144;2022-07-23T01:43:36;100181.53;;;22.96;55.85
36664;BME280;53333;51.976;20.144;2022-07-23T01:46:12;100187.13;;;22.95;56.07
36664;BME280;53333;51.976;20.144;2022-07-23T01:48:52;100182.84;;;22.92;56.27
36664;BME280;53333;51.976;20.144;2022-07-23T01:51:44;100190.47;;;22.89;56.58
36664;BME280;53333;51.976;20.144;2022-07-23T01:54:45;100194.50;;;22.84;57.23
36664;BME280;53333;51.976;20.144;2022-07-23T01:57:19;100188.91;;;22.86;56.67
36664;BME280;53333;51.976;20.144;2022-07-23T01:59:53;100194.34;;;22.86;56.87
36664;BME280;53333;51.976;20.144;2022-07-23T02:02:27;100195.53;;;22.83;56.63
36664;BME280;53333;51.976;20.144;2022-07-23T02:05:01;100184.06;;;22.80;56.66
36664;BME280;53333;51.976;20.144;2022-07-23T02:07:35;100184.38;;;22.77;56.99
36664;BME280;53333;51.976;20.144;2022-07-23T02:10:10;100179.25;;;22.74;56.86
36664;BME280;53333;51.976;20.144;2022-07-23T02:12:44;100174.28;;;22.69;57.25
36664;BME280;53333;51.976;20.144;2022-07-23T02:15:18;100175.72;;;22.63;57.39
36664;BME280;53333;51.976;20.144;2022-07-23T02:17:53;100175.19;;;22.60;57.18
36664;BME280;53333;51.976;20.144;2022-07-23T02:20:26;100169.19;;;22.56;57.61
36664;BME280;53333;51.976;20.144;2022-07-23T02:23:00;100170.34;;;22.54;57.49
36664;BME280;53333;51.976;20.144;2022-07-23T02:25:36;100168.94;;;22.49;57.66
36664;BME280;53333;51.976;20.144;2022-07-23T02:28:10;100177.38;;;22.46;57.59
36664;BME280;53333;51.976;20.144;2022-07-23T02:30:45;100181.44;;;22.42;57.87
36664;BME280;53333;51.976;20.144;2022-07-23T02:33:20;100180.00;;;22.38;57.70
36664;BME280;53333;51.976;20.144;2022-07-23T02:35:53;100185.06;;;22.33;58.27
36664;BME280;53333;51.976;20.144;2022-07-23T02:38:27;100189.22;;;22.27;58.34
36664;BME280;53333;51.976;20.144;2022-07-23T02:41:02;100189.81;;;22.21;58.02
36664;BME280;53333;51.976;20.144;2022-07-23T02:43:36;100188.38;;;22.17;58.46
36664;BME280;53333;51.976;20.144;2022-07-23T02:46:10;100185.41;;;22.10;58.75
36664;BME280;53333;51.976;20.144;2022-07-23T02:48:44;100197.44;;;22.08;58.68
36664;BME280;53333;51.976;20.144;2022-07-23T02:51:18;100195.44;;;22.00;58.87
36664;BME280;53333;51.976;20.144;2022-07-23T02:54:00;100192.19;;;21.97;59.00
36664;BME280;53333;51.976;20.144;2022-07-23T02:56:35;100196.06;;;21.94;59.11
36664;BME280;53333;51.976;20.144;2022-07-23T02:59:13;100197.34;;;21.90;59.20
36664;BME280;53333;51.976;20.144;2022-07-23T03:01:51;100189.50;;;21.87;59.18
36664;BME280;53333;51.976;20.144;2022-07-23T03:04:25;100194.22;;;21.85;59.44
36664;BME280;53333;51.976;20.144;2022-07-23T03:07:00;100199.94;;;21.82;59.62
36664;BME280;53333;51.976;20.144;2022-07-23T03:09:36;100193.81;;;21.80;59.90
36664;BME280;53333;51.976;20.144;2022-07-23T03:12:13;100191.38;;;21.76;59.99
36664;BME280;53333;51.976;20.144;2022-07-23T03:14:47;100197.81;;;21.75;60.14
36664;BME280;53333;51.976;20.144;2022-07-23T03:17:21;100198.81;;;21.74;59.92
36664;BME280;53333;51.976;20.144;2022-07-23T03:19:55;100202.56;;;21.73;60.07
36664;BME280;53333;51.976;20.144;2022-07-23T03:22:28;100200.81;;;21.72;60.03
36664;BME280;53333;51.976;20.144;2022-07-23T03:25:02;100198.09;;;21.72;60.04
36664;BME280;53333;51.976;20.144;2022-07-23T03:27:40;100197.25;;;21.72;60.17
36664;BME280;53333;51.976;20.144;2022-07-23T03:30:14;100200.81;;;21.72;60.33
36664;BME280;53333;51.976;20.144;2022-07-23T03:32:48;100199.84;;;21.73;60.16
36664;BME280;53333;51.976;20.144;2022-07-23T03:35:22;100202.41;;;21.75;60.28
36664;BME280;53333;51.976;20.144;2022-07-23T03:38:26;100202.13;;;21.78;59.97
36664;BME280;53333;51.976;20.144;2022-07-23T03:40:59;100196.53;;;21.80;60.50
36664;BME280;53333;51.976;20.144;2022-07-23T03:43:35;100198.09;;;21.82;60.14
36664;BME280;53333;51.976;20.144;2022-07-23T03:46:09;100191.34;;;21.86;60.01
36664;BME280;53333;51.976;20.144;2022-07-23T03:48:43;100191.91;;;21.90;60.07
36664;BME280;53333;51.976;20.144;2022-07-23T03:51:18;100202.34;;;21.94;60.29
36664;BME280;53333;51.976;20.144;2022-07-23T03:53:55;100193.06;;;21.97;59.87
36664;BME280;53333;51.976;20.144;2022-07-23T03:56:29;100191.72;;;22.01;60.02
36664;BME280;53333;51.976;20.144;2022-07-23T03:59:04;100183.28;;;22.04;60.03
36664;BME280;53333;51.976;20.144;2022-07-23T04:01:38;100181.13;;;22.08;60.09
36664;BME280;53333;51.976;20.144;2022-07-23T04:04:12;100188.84;;;22.12;59.86
36664;BME280;53333;51.976;20.144;2022-07-23T04:06:52;100184.53;;;22.20;59.91
36664;BME280;53333;51.976;20.144;2022-07-23T04:09:25;100182.91;;;22.27;59.79
36664;BME280;53333;51.976;20.144;2022-07-23T04:12:00;100179.63;;;22.33;59.89
36664;BME280;53333;51.976;20.144;2022-07-23T04:14:35;100170.16;;;22.37;59.72
36664;BME280;53333;51.976;20.144;2022-07-23T04:17:09;100186.59;;;22.45;59.58
36664;BME280;53333;51.976;20.144;2022-07-23T04:19:43;100183.25;;;22.52;59.00
36664;BME280;53333;51.976;20.144;2022-07-23T04:22:20;100184.34;;;22.59;59.03
36664;BME280;53333;51.976;20.144;2022-07-23T04:24:53;100176.56;;;22.64;58.80
36664;BME280;53333;51.976;20.144;2022-07-23T04:27:27;100188.59;;;22.71;58.53
36664;BME280;53333;51.976;20.144;2022-07-23T04:30:02;100187.81;;;22.79;58.57
36664;BME280;53333;51.976;20.144;2022-07-23T04:32:36;100190.78;;;22.85;58.77
36664;BME280;53333;51.976;20.144;2022-07-23T04:35:17;100184.88;;;22.90;58.49
36664;BME280;53333;51.976;20.144;2022-07-23T04:37:51;100188.00;;;22.95;58.65
36664;BME280;53333;51.976;20.144;2022-07-23T04:40:25;100189.94;;;23.03;58.78
36664;BME280;53333;51.976;20.144;2022-07-23T04:43:00;100185.59;;;23.10;58.38
36664;BME280;53333;51.976;20.144;2022-07-23T04:45:38;100180.72;;;23.14;58.47
36664;BME280;53333;51.976;20.144;2022-07-23T04:48:15;100175.50;;;23.20;58.32
36664;BME280;53333;51.976;20.144;2022-07-23T04:50:50;100182.75;;;23.30;58.20
36664;BME280;53333;51.976;20.144;2022-07-23T04:53:27;100177.50;;;23.36;58.40
36664;BME280;53333;51.976;20.144;2022-07-23T04:56:04;100171.97;;;23.46;58.40
36664;BME280;53333;51.976;20.144;2022-07-23T04:58:38;100172.88;;;23.55;58.15
36664;BME280;53333;51.976;20.144;2022-07-23T05:01:14;100172.09;;;23.63;58.47
36664;BME280;53333;51.976;20.144;2022-07-23T05:03:49;100180.16;;;23.72;58.13
36664;BME280;53333;51.976;20.144;2022-07-23T05:06:23;100176.34;;;23.83;57.95
36664;BME280;53333;51.976;20.144;2022-07-23T05:08:57;100175.38;;;23.92;58.30
36664;BME280;53333;51.976;20.144;2022-07-23T05:11:31;100177.31;;;24.00;58.09
36664;BME280;53333;51.976;20.144;2022-07-23T05:14:05;100180.78;;;24.10;57.43
36664;BME280;53333;51.976;20.144;2022-07-23T05:16:40;100174.50;;;24.18;57.68
36664;BME280;53333;51.976;20.144;2022-07-23T05:19:20;100174.22;;;24.29;57.35
36664;BME280;53333;51.976;20.144;2022-07-23T05:21:57;100171.91;;;24.43;57.20
36664;BME280;53333;51.976;20.144;2022-07-23T05:24:31;100180.63;;;24.55;56.68
36664;BME280;53333;51.976;20.144;2022-07-23T05:27:05;100175.06;;;24.64;56.65
36664;BME280;53333;51.976;20.144;2022-07-23T05:29:40;100173.91;;;24.75;56.06
36664;BME280;53333;51.976;20.144;2022-07-23T05:32:15;100175.16;;;24.89;56.34
36664;BME280;53333;51.976;20.144;2022-07-23T05:34:57;100172.25;;;24.99;56.04
36664;BME280;53333;51.976;20.144;2022-07-23T05:37:30;100168.31;;;25.10;55.71
36664;BME280;53333;51.976;20.144;2022-07-23T05:40:06;100177.91;;;25.22;55.20
36664;BME280;53333;51.976;20.144;2022-07-23T05:42:41;100179.16;;;25.36;55.01
36664;BME280;53333;51.976;20.144;2022-07-23T05:45:15;100177.44;;;25.51;54.84
36664;BME280;53333;51.976;20.144;2022-07-23T05:47:51;100175.69;;;25.67;55.16
36664;BME280;53333;51.976;20.144;2022-07-23T05:50:33;100180.63;;;25.80;54.17
36664;BME280;53333;51.976;20.144;2022-07-23T05:53:16;100173.13;;;25.90;54.51
36664;BME280;53333;51.976;20.144;2022-07-23T05:56:02;100171.06;;;26.00;54.04
36664;BME280;53333;51.976;20.144;2022-07-23T05:58:36;100182.69;;;26.10;54.00
36664;BME280;53333;51.976;20.144;2022-07-23T06:01:11;100174.25;;;26.20;53.78
36664;BME280;53333;51.976;20.144;2022-07-23T06:03:54;100173.53;;;26.35;52.96
36664;BME280;53333;51.976;20.144;2022-07-23T06:06:35;100166.44;;;26.49;53.19
36664;BME280;53333;51.976;20.144;2022-07-23T06:09:11;100164.16;;;26.60;52.91
36664;BME280;53333;51.976;20.144;2022-07-23T06:11:46;100163.44;;;26.75;52.90
36664;BME280;53333;51.976;20.144;2022-07-23T06:14:20;100161.63;;;26.90;52.77
36664;BME280;53333;51.976;20.144;2022-07-23T06:16:58;100167.81;;;27.07;51.34
36664;BME280;53333;51.976;20.144;2022-07-23T06:19:33;100163.94;;;27.25;51.40
36664;BME280;53333;51.976;20.144;2022-07-23T06:22:07;100168.28;;;27.42;51.16
36664;BME280;53333;51.976;20.144;2022-07-23T06:24:41;100160.06;;;27.57;50.88
36664;BME280;53333;51.976;20.144;2022-07-23T06:27:14;100163.91;;;27.71;51.09
36664;BME280;53333;51.976;20.144;2022-07-23T06:29:54;100159.28;;;27.86;50.33
36664;BME280;53333;51.976;20.144;2022-07-23T06:32:28;100155.53;;;28.02;49.98
36664;BME280;53333;51.976;20.144;2022-07-23T06:35:06;100153.84;;;28.16;48.66
36664;BME280;53333;51.976;20.144;2022-07-23T06:37:39;100151.28;;;28.30;47.64
36664;BME280;53333;51.976;20.144;2022-07-23T06:40:13;100149.56;;;28.43;47.66
36664;BME280;53333;51.976;20.144;2022-07-23T06:42:47;100148.72;;;28.58;47.26
36664;BME280;53333;51.976;20.144;2022-07-23T06:45:26;100153.78;;;28.76;46.79
36664;BME280;53333;51.976;20.144;2022-07-23T06:48:00;100147.84;;;28.94;47.05
36664;BME280;53333;51.976;20.144;2022-07-23T06:50:35;100146.91;;;29.08;46.92
36664;BME280;53333;51.976;20.144;2022-07-23T06:53:09;100136.31;;;29.20;46.01
36664;BME280;53333;51.976;20.144;2022-07-23T06:55:46;100139.56;;;29.30;45.35
36664;BME280;53333;51.976;20.144;2022-07-23T06:58:19;100135.22;;;29.43;45.35
36664;BME280;53333;51.976;20.144;2022-07-23T07:00:53;100134.28;;;29.57;45.38
36664;BME280;53333;51.976;20.144;2022-07-23T07:03:29;100137.13;;;29.70;44.18
36664;BME280;53333;51.976;20.144;2022-07-23T07:06:04;100132.16;;;29.81;44.79
36664;BME280;53333;51.976;20.144;2022-07-23T07:08:37;100137.94;;;29.93;44.49
36664;BME280;53333;51.976;20.144;2022-07-23T07:11:11;100133.78;;;30.03;43.75
36664;BME280;53333;51.976;20.144;2022-07-23T07:13:45;100138.50;;;30.16;43.76
36664;BME280;53333;51.976;20.144;2022-07-23T07:16:19;100135.38;;;30.33;42.16
36664;BME280;53333;51.976;20.144;2022-07-23T07:18:52;100129.78;;;30.48;41.37
36664;BME280;53333;51.976;20.144;2022-07-23T07:21:28;100131.75;;;30.60;41.37
36664;BME280;53333;51.976;20.144;2022-07-23T07:24:02;100141.06;;;30.73;41.25
36664;BME280;53333;51.976;20.144;2022-07-23T07:26:35;100149.19;;;30.81;41.17
36664;BME280;53333;51.976;20.144;2022-07-23T07:29:11;100139.88;;;30.95;41.34
36664;BME280;53333;51.976;20.144;2022-07-23T07:31:45;100142.69;;;31.09;40.20
36664;BME280;53333;51.976;20.144;2022-07-23T07:34:19;100143.78;;;31.21;40.66
36664;BME280;53333;51.976;20.144;2022-07-23T07:36:54;100142.72;;;31.36;39.20
36664;BME280;53333;51.976;20.144;2022-07-23T07:39:28;100140.16;;;31.47;38.91
36664;BME280;53333;51.976;20.144;2022-07-23T07:42:04;100137.22;;;31.56;37.51
36664;BME280;53333;51.976;20.144;2022-07-23T07:44:38;100134.88;;;31.66;36.92
36664;BME280;53333;51.976;20.144;2022-07-23T07:47:12;100134.00;;;31.79;37.46
36664;BME280;53333;51.976;20.144;2022-07-23T07:49:47;100133.97;;;31.92;36.28
36664;BME280;53333;51.976;20.144;2022-07-23T07:52:22;100136.72;;;32.05;35.18
36664;BME280;53333;51.976;20.144;2022-07-23T07:54:56;100144.16;;;32.18;35.40
36664;BME280;53333;51.976;20.144;2022-07-23T07:57:33;100134.94;;;32.38;36.64
36664;BME280;53333;51.976;20.144;2022-07-23T08:00:09;100139.31;;;32.59;35.16
36664;BME280;53333;51.976;20.144;2022-07-23T08:02:45;100145.38;;;32.81;35.74
36664;BME280;53333;51.976;20.144;2022-07-23T08:05:22;100143.53;;;33.07;35.68
36664;BME280;53333;51.976;20.144;2022-07-23T08:08:00;100148.25;;;33.31;35.50
36664;BME280;53333;51.976;20.144;2022-07-23T08:10:34;100155.56;;;33.51;34.64
36664;BME280;53333;51.976;20.144;2022-07-23T08:13:12;100146.75;;;33.61;33.76
36664;BME280;53333;51.976;20.144;2022-07-23T08:15:46;100154.56;;;33.71;33.00
36664;BME280;53333;51.976;20.144;2022-07-23T08:18:20;100156.66;;;33.75;33.45
36664;BME280;53333;51.976;20.144;2022-07-23T08:20:54;100165.84;;;33.94;34.45
36664;BME280;53333;51.976;20.144;2022-07-23T08:23:29;100156.22;;;34.15;33.82
36664;BME280;53333;51.976;20.144;2022-07-23T08:26:03;100154.72;;;34.38;32.00
36664;BME280;53333;51.976;20.144;2022-07-23T08:28:37;100161.00;;;34.64;32.44
36664;BME280;53333;51.976;20.144;2022-07-23T08:31:11;100155.09;;;34.79;32.01
36664;BME280;53333;51.976;20.144;2022-07-23T08:33:44;100139.78;;;34.88;31.43
36664;BME280;53333;51.976;20.144;2022-07-23T08:36:18;100147.56;;;34.98;31.09
36664;BME280;53333;51.976;20.144;2022-07-23T08:38:53;100147.22;;;35.06;30.95
36664;BME280;53333;51.976;20.144;2022-07-23T08:41:27;100152.31;;;35.21;32.01
36664;BME280;53333;51.976;20.144;2022-07-23T08:44:01;100155.28;;;35.50;32.06
36664;BME280;53333;51.976;20.144;2022-07-23T08:46:36;100148.09;;;35.84;32.04
36664;BME280;53333;51.976;20.144;2022-07-23T08:49:14;100151.78;;;36.25;30.05
36664;BME280;53333;51.976;20.144;2022-07-23T08:51:48;100153.25;;;36.68;29.25
36664;BME280;53333;51.976;20.144;2022-07-23T08:54:24;100148.13;;;37.35;27.44
36664;BME280;53333;51.976;20.144;2022-07-23T08:56:57;100149.50;;;38.22;26.67
36664;BME280;53333;51.976;20.144;2022-07-23T08:59:31;100132.53;;;39.22;25.22
36664;BME280;53333;51.976;20.144;2022-07-23T09:02:05;100139.44;;;40.33;23.65
36664;BME280;53333;51.976;20.144;2022-07-23T09:04:39;100141.66;;;41.61;21.90
36664;BME280;53333;51.976;20.144;2022-07-23T09:07:13;100138.78;;;42.77;21.38
36664;BME280;53333;51.976;20.144;2022-07-23T09:10:04;100132.97;;;43.72;19.74
36664;BME280;53333;51.976;20.144;2022-07-23T09:12:38;100128.63;;;44.57;18.84
36664;BME280;53333;51.976;20.144;2022-07-23T09:15:12;100131.47;;;45.47;17.22
36664;BME280;53333;51.976;20.144;2022-07-23T09:17:45;100134.19;;;46.27;17.07
36664;BME280;53333;51.976;20.144;2022-07-23T09:20:19;100136.28;;;47.00;15.98
36664;BME280;53333;51.976;20.144;2022-07-23T09:22:52;100121.91;;;47.64;15.55
36664;BME280;53333;51.976;20.144;2022-07-23T09:25:44;100120.94;;;48.40;14.03
36664;BME280;53333;51.976;20.144;2022-07-23T09:28:21;100124.16;;;48.91;13.26
36664;BME280;53333;51.976;20.144;2022-07-23T09:30:54;100119.31;;;49.26;14.08
36664;BME280;53333;51.976;20.144;2022-07-23T09:33:28;100115.94;;;49.51;13.00
36664;BME280;53333;51.976;20.144;2022-07-23T09:36:02;100116.75;;;49.51;12.62
36664;BME280;53333;51.976;20.144;2022-07-23T09:38:47;100113.97;;;49.25;12.95
36664;BME280;53333;51.976;20.144;2022-07-23T09:41:23;100107.31;;;49.03;13.28
36664;BME280;53333;51.976;20.144;2022-07-23T09:43:57;100107.47;;;48.54;13.29
36664;BME280;53333;51.976;20.144;2022-07-23T09:46:33;100103.47;;;48.47;13.54
36664;BME280;53333;51.976;20.144;2022-07-23T09:49:18;100104.13;;;48.61;13.88
36664;BME280;53333;51.976;20.144;2022-07-23T09:51:53;100102.13;;;48.53;14.30
36664;BME280;53333;51.976;20.144;2022-07-23T09:54:31;100093.19;;;48.11;13.14
36664;BME280;53333;51.976;20.144;2022-07-23T09:57:09;100089.38;;;48.07;14.13
36664;BME280;53333;51.976;20.144;2022-07-23T09:59:44;100090.28;;;48.42;14.69
36664;BME280;53333;51.976;20.144;2022-07-23T10:02:19;100094.81;;;48.61;13.37
36664;BME280;53333;51.976;20.144;2022-07-23T10:05:25;100090.03;;;48.04;13.59
36664;BME280;53333;51.976;20.144;2022-07-23T10:08:20;100098.03;;;46.93;14.67
36664;BME280;53333;51.976;20.144;2022-07-23T10:10:58;100087.28;;;46.31;15.83
36664;BME280;53333;51.976;20.144;2022-07-23T10:13:56;100083.47;;;46.64;16.26
36664;BME280;53333;51.976;20.144;2022-07-23T10:16:50;100086.97;;;47.28;15.17
36664;BME280;53333;51.976;20.144;2022-07-23T10:19:24;100075.66;;;47.91;14.56
36664;BME280;53333;51.976;20.144;2022-07-23T10:22:01;100063.44;;;48.40;13.88
36664;BME280;53333;51.976;20.144;2022-07-23T10:24:52;100069.00;;;48.88;13.21
36664;BME280;53333;51.976;20.144;2022-07-23T10:27:39;100064.84;;;48.95;13.32
36664;BME280;53333;51.976;20.144;2022-07-23T10:30:29;100065.50;;;48.91;13.77
36664;BME280;53333;51.976;20.144;2022-07-23T10:33:15;100064.66;;;48.65;14.03
36664;BME280;53333;51.976;20.144;2022-07-23T10:35:58;100057.97;;;48.34;13.67
36664;BME280;53333;51.976;20.144;2022-07-23T10:38:39;100062.66;;;47.81;13.89
36664;BME280;53333;51.976;20.144;2022-07-23T10:41:30;100054.34;;;47.22;15.08
36664;BME280;53333;51.976;20.144;2022-07-23T10:44:09;100063.72;;;46.86;15.42
36664;BME280;53333;51.976;20.144;2022-07-23T10:46:56;100057.75;;;46.15;15.35
36664;BME280;53333;51.976;20.144;2022-07-23T10:49:40;100053.53;;;45.57;16.28
36664;BME280;53333;51.976;20.144;2022-07-23T10:52:17;100043.22;;;45.19;16.55
36664;BME280;53333;51.976;20.144;2022-07-23T10:54:53;100043.13;;;44.53;16.35
36664;BME280;53333;51.976;20.144;2022-07-23T10:57:28;100041.97;;;43.68;17.92
36664;BME280;53333;51.976;20.144;2022-07-23T11:00:21;100038.88;;;43.11;18.19
36664;BME280;53333;51.976;20.144;2022-07-23T11:02:57;100046.97;;;42.83;20.14
36664;BME280;53333;51.976;20.144;2022-07-23T11:05:41;100028.81;;;42.70;20.15
36664;BME280;53333;51.976;20.144;2022-07-23T11:08:18;100027.53;;;42.57;19.71
36664;BME280;53333;51.976;20.144;2022-07-23T11:10:55;100027.22;;;42.54;20.60
36664;BME280;53333;51.976;20.144;2022-07-23T11:13:46;100032.13;;;42.33;19.23
36664;BME280;53333;51.976;20.144;2022-07-23T11:16:22;100028.88;;;42.00;20.22
36664;BME280;53333;51.976;20.144;2022-07-23T11:19:07;100021.66;;;41.88;20.60
36664;BME280;53333;51.976;20.144;2022-07-23T11:21:50;100017.22;;;41.77;21.21
36664;BME280;53333;51.976;20.144;2022-07-23T11:24:27;100015.63;;;41.50;20.33
36664;BME280;53333;51.976;20.144;2022-07-23T11:27:03;100006.97;;;41.21;19.87
36664;BME280;53333;51.976;20.144;2022-07-23T11:29:47;99998.88;;;41.04;21.14
36664;BME280;53333;51.976;20.144;2022-07-23T11:32:29;99997.72;;;40.74;20.66
36664;BME280;53333;51.976;20.144;2022-07-23T11:35:23;99989.59;;;40.52;21.27
36664;BME280;53333;51.976;20.144;2022-07-23T11:38:04;99992.94;;;40.39;22.35
36664;BME280;53333;51.976;20.144;2022-07-23T11:40:38;99989.25;;;40.28;22.53
36664;BME280;53333;51.976;20.144;2022-07-23T11:43:16;99984.22;;;40.30;21.71
36664;BME280;53333;51.976;20.144;2022-07-23T11:45:52;99985.63;;;40.33;22.67
36664;BME280;53333;51.976;20.144;2022-07-23T11:48:28;99987.56;;;40.32;22.77
36664;BME280;53333;51.976;20.144;2022-07-23T11:51:04;99985.09;;;40.36;21.66
36664;BME280;53333;51.976;20.144;2022-07-23T11:53:37;99975.91;;;40.45;23.02
36664;BME280;53333;51.976;20.144;2022-07-23T11:56:11;99961.63;;;40.42;21.30
36664;BME280;53333;51.976;20.144;2022-07-23T11:58:54;99957.94;;;40.31;21.23
36664;BME280;53333;51.976;20.144;2022-07-23T12:01:31;99956.22;;;40.14;22.18
36664;BME280;53333;51.976;20.144;2022-07-23T12:04:05;99955.03;;;39.95;21.87
36664;BME280;53333;51.976;20.144;2022-07-23T12:06:42;99950.53;;;39.78;22.68
36664;BME280;53333;51.976;20.144;2022-07-23T12:09:15;99949.38;;;39.69;23.23
36664;BME280;53333;51.976;20.144;2022-07-23T12:11:59;99939.28;;;39.58;22.82
36664;BME280;53333;51.976;20.144;2022-07-23T12:14:32;99933.56;;;39.42;23.38
36664;BME280;53333;51.976;20.144;2022-07-23T12:17:06;99929.84;;;39.27;22.48
36664;BME280;53333;51.976;20.144;2022-07-23T12:19:40;99921.09;;;39.08;22.25
36664;BME280;53333;51.976;20.144;2022-07-23T12:22:18;99921.53;;;38.89;22.53
36664;BME280;53333;51.976;20.144;2022-07-23T12:24:56;99906.88;;;38.72;22.12
36664;BME280;53333;51.976;20.144;2022-07-23T12:27:30;99908.50;;;38.62;23.13
36664;BME280;53333;51.976;20.144;2022-07-23T12:30:18;99908.56;;;38.73;23.41
36664;BME280;53333;51.976;20.144;2022-07-23T12:32:57;99897.19;;;38.79;22.47
36664;BME280;53333;51.976;20.144;2022-07-23T12:35:35;99894.97;;;38.81;22.09
36664;BME280;53333;51.976;20.144;2022-07-23T12:38:12;99889.91;;;38.78;21.54
36664;BME280;53333;51.976;20.144;2022-07-23T12:40:48;99890.41;;;38.65;22.06
36664;BME280;53333;51.976;20.144;2022-07-23T12:43:24;99886.63;;;38.49;22.27
36664;BME280;53333;51.976;20.144;2022-07-23T12:46:03;99897.31;;;38.30;21.71
36664;BME280;53333;51.976;20.144;2022-07-23T12:48:38;99898.44;;;38.07;21.91
36664;BME280;53333;51.976;20.144;2022-07-23T12:51:15;99898.31;;;37.91;22.05
36664;BME280;53333;51.976;20.144;2022-07-23T12:53:55;99883.38;;;37.75;22.47
36664;BME280;53333;51.976;20.144;2022-07-23T12:56:31;99886.97;;;37.54;22.12
36664;BME280;53333;51.976;20.144;2022-07-23T12:59:08;99882.84;;;37.34;22.93
36664;BME280;53333;51.976;20.144;2022-07-23T13:01:44;99886.59;;;37.23;23.23
36664;BME280;53333;51.976;20.144;2022-07-23T13:04:23;99886.28;;;37.02;23.54
36664;BME280;53333;51.976;20.144;2022-07-23T13:06:58;99886.81;;;36.82;24.02
36664;BME280;53333;51.976;20.144;2022-07-23T13:09:37;99876.53;;;36.66;24.44
36664;BME280;53333;51.976;20.144;2022-07-23T13:12:14;99883.09;;;36.43;24.71
36664;BME280;53333;51.976;20.144;2022-07-23T13:14:47;99880.72;;;36.17;24.92
36664;BME280;53333;51.976;20.144;2022-07-23T13:17:22;99869.13;;;35.92;25.21
36664;BME280;53333;51.976;20.144;2022-07-23T13:19:55;99868.59;;;35.66;25.77
36664;BME280;53333;51.976;20.144;2022-07-23T13:22:29;99863.97;;;35.43;25.83
36664;BME280;53333;51.976;20.144;2022-07-23T13:25:06;99877.28;;;35.17;26.46
36664;BME280;53333;51.976;20.144;2022-07-23T13:27:41;99884.78;;;34.93;26.56